createdAt,value
2022-11-25T00:01:27.106Z,10.70
2022-11-25T00:03:57.280Z,10.70
2022-11-25T00:06:26.967Z,10.60
2022-11-25T00:08:59.205Z,10.60
2022-11-25T00:11:27.847Z,10.60
2022-11-25T00:13:57.881Z,10.60
2022-11-25T00:16:27.808Z,10.60
2022-11-25T00:18:59.368Z,10.60
2022-11-25T00:21:30.098Z,10.50
2022-11-25T00:24:01.367Z,10.60
2022-11-25T00:26:32.885Z,10.50
2022-11-25T00:29:03.073Z,10.50
2022-11-25T00:31:33.499Z,10.60
2022-11-25T00:34:01.663Z,10.60
2022-11-25T00:36:31.353Z,10.50
2022-11-25T00:39:02.510Z,10.50
2022-11-25T00:41:49.117Z,10.50
2022-11-25T00:44:36.497Z,10.50
2022-11-25T00:47:06.887Z,10.40
2022-11-25T00:49:35.816Z,10.30
2022-11-25T00:52:04.696Z,10.30
2022-11-25T00:54:35.163Z,10.30
2022-11-25T00:57:03.519Z,10.20
2022-11-25T00:59:31.822Z,10.10
2022-11-25T01:02:00.407Z,9.90
2022-11-25T01:04:28.579Z,9.90
2022-11-25T01:06:58.419Z,9.90
2022-11-25T01:09:26.926Z,9.90
2022-11-25T01:11:57.181Z,9.90
2022-11-25T01:14:25.947Z,10.00
2022-11-25T01:16:54.265Z,10.10
2022-11-25T01:19:22.974Z,10.20
2022-11-25T01:21:51.256Z,10.10
2022-11-25T01:24:19.641Z,10.10
2022-11-25T01:26:48.201Z,10.10
2022-11-25T01:29:19.513Z,10.10
2022-11-25T01:31:48.396Z,10.20
2022-11-25T01:34:18.139Z,10.10
2022-11-25T01:36:46.697Z,10.20
2022-11-25T01:39:18.548Z,10.20
2022-11-25T01:41:47.649Z,10.30
2022-11-25T01:44:19.060Z,10.20
2022-11-25T01:46:57.140Z,10.30
2022-11-25T01:49:31.621Z,10.10
2022-11-25T01:52:04.310Z,10.00
2022-11-25T01:54:39.328Z,10.00
2022-11-25T01:57:12.551Z,9.90
2022-11-25T01:59:47.329Z,10.00
2022-11-25T02:02:16.228Z,10.00
2022-11-25T02:04:45.781Z,10.10
2022-11-25T02:07:20.880Z,10.20
2022-11-25T02:09:49.780Z,10.20
2022-11-25T02:12:19.967Z,10.20
2022-11-25T02:14:50.998Z,10.10
2022-11-25T02:17:19.483Z,10.10
2022-11-25T02:20:00.068Z,10.10
2022-11-25T02:22:37.659Z,10.00
2022-11-25T02:25:15.371Z,9.90
2022-11-25T02:27:45.835Z,10.00
2022-11-25T02:30:14.993Z,10.00
2022-11-25T02:32:46.861Z,10.10
2022-11-25T02:35:33.395Z,10.10
2022-11-25T02:38:06.441Z,10.00
2022-11-25T02:40:41.520Z,10.00
2022-11-25T02:43:09.815Z,10.10
2022-11-25T02:45:54.482Z,10.10
2022-11-25T02:48:39.703Z,10.00
2022-11-25T02:51:09.902Z,10.10
2022-11-25T02:53:38.183Z,10.10
2022-11-25T02:56:08.799Z,10.10
2022-11-25T02:58:37.148Z,10.00
2022-11-25T03:01:05.599Z,9.90
2022-11-25T03:03:34.157Z,10.10
2022-11-25T03:06:02.631Z,10.10
2022-11-25T03:08:31.021Z,10.10
2022-11-25T03:10:59.118Z,10.10
2022-11-25T03:13:29.228Z,10.10
2022-11-25T03:15:57.477Z,10.10
2022-11-25T03:18:26.048Z,10.00
2022-11-25T03:20:54.248Z,9.90
2022-11-25T03:23:23.011Z,9.80
2022-11-25T03:25:51.123Z,9.80
2022-11-25T03:28:19.660Z,9.80
2022-11-25T03:30:49.402Z,9.80
2022-11-25T03:33:17.540Z,9.80
2022-11-25T03:35:45.663Z,9.80
2022-11-25T03:38:13.931Z,9.70
2022-11-25T03:40:41.971Z,9.80
2022-11-25T03:43:10.373Z,9.80
2022-11-25T03:45:38.667Z,9.70
2022-11-25T03:48:08.221Z,9.80
2022-11-25T03:50:36.403Z,9.80
2022-11-25T03:53:04.869Z,9.70
2022-11-25T03:55:33.026Z,9.80
2022-11-25T03:58:01.430Z,9.80
2022-11-25T04:00:29.782Z,9.80
2022-11-25T04:02:57.935Z,9.90
2022-11-25T04:05:27.734Z,9.90
2022-11-25T04:07:58.093Z,9.90
2022-11-25T04:10:26.494Z,9.80
2022-11-25T04:12:54.463Z,9.80
2022-11-25T04:15:23.158Z,9.80
2022-11-25T04:17:51.309Z,9.90
2022-11-25T04:20:19.549Z,9.80
2022-11-25T04:22:49.243Z,9.80
2022-11-25T04:25:17.534Z,9.80
2022-11-25T04:27:45.874Z,9.90
2022-11-25T04:30:14.797Z,9.80
2022-11-25T04:32:42.933Z,9.80
2022-11-25T04:35:11.219Z,9.90
2022-11-25T04:37:39.553Z,9.80
2022-11-25T04:40:10.665Z,9.70
2022-11-25T04:43:01.684Z,9.70
2022-11-25T04:45:51.539Z,9.60
2022-11-25T04:48:21.428Z,9.80
2022-11-25T04:50:49.961Z,9.70
2022-11-25T04:53:18.094Z,9.90
2022-11-25T04:55:48.054Z,9.90
2022-11-25T04:58:36.830Z,9.90
2022-11-25T05:01:04.560Z,9.80
2022-11-25T05:03:32.784Z,9.80
2022-11-25T05:06:00.859Z,9.90
2022-11-25T05:08:29.709Z,9.80
2022-11-25T05:11:00.362Z,9.60
2022-11-25T05:13:28.854Z,9.60
2022-11-25T05:16:00.610Z,9.60
2022-11-25T05:18:28.815Z,9.50
2022-11-25T05:20:56.900Z,9.50
2022-11-25T05:23:25.542Z,9.50
2022-11-25T05:25:53.608Z,9.40
2022-11-25T05:28:23.157Z,9.40
2022-11-25T05:30:51.875Z,9.40
2022-11-25T05:33:20.047Z,9.30
2022-11-25T05:35:55.895Z,9.30
2022-11-25T05:38:24.068Z,9.30
2022-11-25T05:40:52.173Z,9.20
2022-11-25T05:43:22.267Z,9.20
2022-11-25T05:45:50.467Z,9.10
2022-11-25T05:48:18.627Z,9.10
2022-11-25T05:50:46.862Z,9.00
2022-11-25T05:53:17.294Z,9.00
2022-11-25T05:55:45.684Z,9.00
2022-11-25T05:58:14.408Z,9.10
2022-11-25T06:00:44.317Z,9.10
2022-11-25T06:03:12.551Z,9.20
2022-11-25T06:05:41.325Z,9.20
2022-11-25T06:08:09.555Z,9.20
2022-11-25T06:10:40.570Z,9.00
2022-11-25T06:13:09.430Z,8.90
2022-11-25T06:15:43.607Z,8.90
2022-11-25T06:18:13.180Z,8.90
2022-11-25T06:20:41.435Z,8.90
2022-11-25T06:23:10.305Z,8.90
2022-11-25T06:25:39.033Z,8.80
2022-11-25T06:28:14.217Z,8.90
2022-11-25T06:30:44.514Z,8.80
2022-11-25T06:33:12.860Z,8.80
2022-11-25T06:35:41.051Z,9.00
2022-11-25T06:38:09.809Z,8.90
2022-11-25T06:40:37.915Z,8.90
2022-11-25T06:43:06.585Z,8.80
2022-11-25T06:45:35.163Z,9.00
2022-11-25T06:48:05.129Z,9.00
2022-11-25T06:50:33.754Z,8.90
2022-11-25T06:53:02.398Z,8.90
2022-11-25T06:55:30.527Z,8.80
2022-11-25T06:58:13.860Z,8.90
2022-11-25T07:00:46.905Z,8.90
2022-11-25T07:03:16.479Z,8.80
2022-11-25T07:05:44.710Z,8.80
2022-11-25T07:08:13.226Z,8.80
2022-11-25T07:10:41.407Z,8.80
2022-11-25T07:13:09.552Z,8.80
2022-11-25T07:15:38.760Z,8.80
2022-11-25T07:18:07.070Z,8.90
2022-11-25T07:20:36.838Z,8.90
2022-11-25T07:23:05.566Z,8.80
2022-11-25T07:25:34.442Z,9.00
2022-11-25T07:28:02.597Z,9.10
2022-11-25T07:33:19.830Z,9.20
2022-11-25T07:35:49.597Z,9.30
2022-11-25T07:38:17.806Z,9.30
2022-11-25T07:40:46.021Z,9.40
2022-11-25T07:43:14.246Z,9.50
2022-11-25T07:45:42.341Z,9.60
2022-11-25T07:48:10.577Z,9.70
2022-11-25T07:50:38.987Z,9.70
2022-11-25T07:53:08.588Z,9.70
2022-11-25T07:55:37.726Z,9.70
2022-11-25T07:58:05.901Z,9.70
2022-11-25T08:00:36.353Z,9.60
2022-11-25T08:03:04.731Z,9.60
2022-11-25T08:05:34.548Z,9.60
2022-11-25T08:08:02.767Z,9.70
2022-11-25T08:10:32.531Z,9.70
2022-11-25T08:13:00.929Z,9.70
2022-11-25T08:15:29.008Z,9.70
2022-11-25T08:17:57.319Z,9.80
2022-11-25T08:20:25.826Z,9.80
2022-11-25T08:22:55.518Z,9.80
2022-11-25T08:25:23.893Z,9.80
2022-11-25T08:27:53.698Z,9.70
2022-11-25T08:30:24.761Z,9.70
2022-11-25T08:32:53.635Z,9.70
2022-11-25T08:35:22.117Z,9.80
2022-11-25T08:37:50.291Z,9.70
2022-11-25T08:40:18.831Z,9.70
2022-11-25T08:42:47.248Z,9.70
2022-11-25T08:45:16.715Z,9.60
2022-11-25T08:47:45.144Z,9.60
2022-11-25T08:50:16.803Z,9.50
2022-11-25T08:52:45.076Z,9.50
2022-11-25T08:55:13.335Z,9.60
2022-11-25T08:57:42.151Z,9.60
2022-11-25T09:00:12.267Z,9.60
2022-11-25T09:02:41.827Z,9.70
2022-11-25T09:05:12.689Z,9.80
2022-11-25T09:07:41.322Z,9.80
2022-11-25T09:10:14.907Z,10.40
2022-11-25T09:12:43.102Z,11.10
2022-11-25T09:15:12.430Z,11.90
2022-11-25T09:17:42.240Z,12.60
2022-11-25T09:20:11.124Z,13.30
2022-11-25T09:22:39.542Z,13.80
2022-11-25T09:25:09.389Z,13.90
2022-11-25T09:27:37.488Z,13.80
2022-11-25T09:30:06.910Z,13.60
2022-11-25T09:32:35.344Z,13.60
2022-11-25T09:35:05.341Z,13.70
2022-11-25T09:37:34.102Z,13.90
2022-11-25T09:40:02.532Z,14.20
2022-11-25T09:42:58.850Z,14.30
2022-11-25T09:45:52.980Z,14.50
2022-11-25T09:48:34.521Z,14.70
2022-11-25T09:51:13.271Z,15.00
2022-11-25T09:53:45.705Z,15.30
2022-11-25T09:56:26.842Z,15.60
2022-11-25T09:59:00.492Z,15.80
2022-11-25T10:01:30.558Z,16.10
2022-11-25T10:04:04.139Z,16.10
2022-11-25T10:06:37.461Z,16.30
2022-11-25T10:09:16.365Z,16.40
2022-11-25T10:11:51.722Z,16.50
2022-11-25T10:14:27.671Z,16.50
2022-11-25T10:17:02.783Z,16.50
2022-11-25T10:19:40.871Z,16.70
2022-11-25T10:22:24.144Z,16.90
2022-11-25T10:24:55.880Z,17.00
2022-11-25T10:27:28.975Z,17.10
2022-11-25T10:30:03.906Z,17.10
2022-11-25T10:32:41.968Z,17.10
2022-11-25T10:35:20.560Z,17.20
2022-11-25T10:37:55.358Z,17.30
2022-11-25T10:40:24.202Z,17.30
2022-11-25T10:42:52.460Z,17.40
2022-11-25T10:45:23.937Z,17.50
2022-11-25T10:48:08.591Z,17.40
2022-11-25T10:50:48.484Z,17.30
2022-11-25T10:53:21.737Z,17.40
2022-11-25T10:56:00.787Z,17.40
2022-11-25T10:58:33.055Z,17.50
2022-11-25T11:01:15.510Z,17.40
2022-11-25T11:03:46.313Z,17.10
2022-11-25T11:06:36.732Z,17.10
2022-11-25T11:09:07.068Z,17.00
2022-11-25T11:11:48.878Z,17.10
2022-11-25T11:14:22.000Z,17.10
2022-11-25T11:16:54.570Z,17.10
2022-11-25T11:19:23.828Z,17.10
2022-11-25T11:21:52.618Z,17.00
2022-11-25T11:24:32.282Z,17.00
2022-11-25T11:27:06.518Z,17.10
2022-11-25T11:29:35.658Z,17.20
2022-11-25T11:32:06.074Z,17.10
2022-11-25T11:34:50.182Z,17.00
2022-11-25T11:37:36.878Z,16.80
2022-11-25T11:40:32.074Z,16.60
2022-11-25T11:43:20.541Z,16.50
2022-11-25T11:46:02.085Z,16.30
2022-11-25T11:48:39.210Z,16.20
2022-11-25T11:51:21.066Z,16.10
2022-11-25T11:53:58.182Z,16.10
2022-11-25T11:56:36.229Z,16.20
2022-11-25T11:59:28.191Z,16.20
2022-11-25T12:02:18.587Z,16.10
2022-11-25T12:04:52.416Z,16.10
2022-11-25T12:07:27.930Z,16.10
2022-11-25T12:10:03.330Z,16.10
2022-11-25T12:12:37.735Z,16.10
2022-11-25T12:15:16.213Z,16.00
2022-11-25T12:17:49.460Z,15.90
2022-11-25T12:20:23.394Z,15.80
2022-11-25T12:22:59.412Z,15.70
2022-11-25T12:25:35.411Z,15.70
2022-11-25T12:28:09.942Z,15.70
2022-11-25T12:30:42.342Z,15.70
2022-11-25T12:33:16.345Z,15.70
2022-11-25T12:35:53.826Z,15.70
2022-11-25T12:38:30.847Z,15.60
2022-11-25T12:41:06.903Z,15.60
2022-11-25T12:43:44.827Z,15.40
2022-11-25T12:46:22.601Z,15.20
2022-11-25T12:48:51.228Z,15.20
2022-11-25T12:51:38.879Z,15.10
2022-11-25T12:54:25.880Z,14.90
2022-11-25T12:57:27.100Z,15.10
2022-11-25T13:00:39.284Z,15.00
2022-11-25T13:03:27.137Z,14.90
2022-11-25T13:06:18.911Z,14.90
2022-11-25T13:08:58.486Z,14.80
2022-11-25T13:11:54.743Z,14.90
2022-11-25T13:14:29.489Z,14.90
2022-11-25T13:17:00.829Z,14.80
2022-11-25T13:19:29.316Z,14.80
2022-11-25T13:21:59.536Z,14.80
2022-11-25T13:24:33.836Z,14.70
2022-11-25T13:27:02.809Z,14.70
2022-11-25T13:30:05.158Z,14.60
2022-11-25T13:32:37.879Z,14.60
2022-11-25T13:35:37.143Z,14.60
2022-11-25T13:38:37.911Z,14.50
2022-11-25T13:41:23.896Z,14.30
2022-11-25T13:44:02.224Z,14.30
2022-11-25T13:46:38.568Z,14.20
2022-11-25T13:49:23.350Z,14.20
2022-11-25T13:51:52.690Z,14.10
2022-11-25T13:54:25.497Z,14.20
2022-11-25T13:57:16.322Z,14.10
2022-11-25T13:59:54.559Z,14.10
2022-11-25T14:02:34.451Z,14.00
2022-11-25T14:05:16.925Z,13.90
2022-11-25T14:07:50.523Z,13.90
2022-11-25T14:10:26.153Z,13.80
2022-11-25T14:13:26.925Z,13.80
2022-11-25T14:16:14.258Z,13.90
2022-11-25T14:22:10.723Z,14.00
2022-11-25T14:24:42.144Z,13.90
2022-11-25T14:27:16.359Z,13.90
2022-11-25T14:29:49.457Z,13.80
2022-11-25T14:32:21.672Z,13.80
2022-11-25T14:34:54.224Z,13.80
2022-11-25T14:37:30.884Z,13.60
2022-11-25T14:40:04.914Z,13.60
2022-11-25T14:42:37.376Z,13.60
2022-11-25T14:45:22.318Z,13.50
2022-11-25T14:47:50.751Z,13.50
2022-11-25T14:50:34.177Z,13.50
2022-11-25T14:53:09.063Z,13.50
2022-11-25T14:55:38.062Z,13.40
2022-11-25T14:58:06.440Z,13.30
2022-11-25T15:00:35.131Z,13.20
2022-11-25T15:03:06.538Z,13.20
2022-11-25T15:05:36.897Z,13.10
2022-11-25T15:08:12.227Z,13.10
2022-11-25T15:10:43.927Z,13.00
2022-11-25T15:13:20.526Z,13.00
2022-11-25T15:15:49.363Z,13.00
2022-11-25T15:18:22.695Z,13.00
2022-11-25T15:20:54.675Z,12.90
2022-11-25T15:23:31.791Z,12.70
2022-11-25T15:26:01.282Z,12.70
2022-11-25T15:28:35.820Z,12.60
2022-11-25T15:31:09.348Z,12.50
2022-11-25T15:33:38.411Z,12.50
2022-11-25T15:36:07.239Z,12.40
2022-11-25T15:38:41.342Z,12.30
2022-11-25T15:41:21.647Z,12.30
2022-11-25T15:43:52.504Z,12.20
2022-11-25T15:46:20.978Z,12.10
2022-11-25T15:48:51.816Z,12.00
2022-11-25T15:51:36.873Z,12.00
2022-11-25T15:54:14.830Z,11.90
2022-11-25T15:56:47.772Z,11.90
2022-11-25T15:59:39.712Z,11.80
2022-11-25T16:02:33.447Z,11.70
2022-11-25T16:05:31.792Z,11.60
2022-11-25T16:08:30.470Z,11.60
2022-11-25T16:11:10.951Z,11.60
2022-11-25T16:13:40.485Z,11.50
2022-11-25T16:16:28.569Z,11.40
2022-11-25T16:19:21.790Z,11.30
2022-11-25T16:21:57.590Z,11.40
2022-11-25T16:24:36.660Z,11.40
2022-11-25T16:27:08.381Z,11.20
2022-11-25T16:29:41.082Z,11.20
2022-11-25T16:32:16.091Z,11.20
2022-11-25T16:34:45.120Z,11.10
2022-11-25T16:37:13.459Z,11.10
2022-11-25T16:39:41.673Z,11.00
2022-11-25T16:42:18.828Z,11.00
2022-11-25T16:44:49.663Z,11.00
2022-11-25T16:47:19.049Z,11.00
2022-11-25T16:49:47.799Z,11.00
2022-11-25T16:52:16.050Z,10.80
2022-11-25T16:54:44.393Z,10.80
2022-11-25T16:57:20.316Z,10.70
2022-11-25T16:59:55.904Z,10.60
2022-11-25T17:02:26.761Z,10.60
2022-11-25T17:04:55.317Z,10.50
2022-11-25T17:07:32.702Z,10.60
2022-11-25T17:10:01.390Z,10.60
2022-11-25T17:12:33.132Z,10.50
2022-11-25T17:15:03.158Z,10.50
2022-11-25T17:17:31.675Z,10.50
2022-11-25T17:19:59.908Z,10.40
2022-11-25T17:22:31.209Z,10.40
2022-11-25T17:25:02.998Z,10.40
2022-11-25T17:27:34.339Z,10.30
2022-11-25T17:30:06.543Z,10.30
2022-11-25T17:32:35.623Z,10.20
2022-11-25T17:35:03.933Z,10.20
2022-11-25T17:37:33.020Z,10.20
2022-11-25T17:40:01.451Z,10.10
2022-11-25T17:42:33.529Z,10.10
2022-11-25T17:45:02.156Z,10.10
2022-11-25T17:47:30.433Z,10.10
2022-11-25T17:49:58.925Z,10.10
2022-11-25T17:52:27.203Z,10.10
2022-11-25T17:54:55.438Z,10.00
2022-11-25T17:57:28.511Z,9.90
2022-11-25T17:59:58.109Z,9.90
2022-11-25T18:02:26.776Z,9.90
2022-11-25T18:04:55.911Z,9.90
2022-11-25T18:07:24.185Z,9.80
2022-11-25T18:09:52.836Z,9.80
2022-11-25T18:12:27.894Z,9.70
2022-11-25T18:14:58.212Z,9.80
2022-11-25T18:17:26.473Z,9.70
2022-11-25T18:19:55.597Z,9.80
2022-11-25T18:22:24.873Z,9.70
2022-11-25T18:24:53.834Z,9.70
2022-11-25T18:27:24.812Z,9.70
2022-11-25T18:29:54.112Z,9.70
2022-11-25T18:32:24.856Z,9.60
2022-11-25T18:34:53.485Z,9.60
2022-11-25T18:37:21.768Z,9.60
2022-11-25T18:39:50.408Z,9.50
2022-11-25T18:42:25.504Z,9.50
2022-11-25T18:44:54.552Z,9.40
2022-11-25T18:47:24.241Z,9.40
2022-11-25T18:49:56.183Z,9.40
2022-11-25T18:52:25.154Z,9.40
2022-11-25T18:54:53.550Z,9.40
2022-11-25T18:57:21.836Z,9.30
2022-11-25T19:00:16.966Z,9.30
2022-11-25T19:02:40.280Z,9.20
2022-11-25T19:05:17.945Z,9.10
2022-11-25T19:07:47.210Z,9.10
2022-11-25T19:10:16.014Z,9.10
2022-11-25T19:12:46.848Z,9.10
2022-11-25T19:15:17.993Z,9.00
2022-11-25T19:17:51.635Z,8.90
2022-11-25T19:20:20.994Z,9.00
2022-11-25T19:22:49.348Z,8.90
2022-11-25T19:25:17.570Z,8.90
2022-11-25T19:27:50.135Z,8.90
2022-11-25T19:30:21.145Z,8.90
2022-11-25T19:32:53.784Z,8.90
2022-11-25T19:35:28.255Z,8.80
2022-11-25T19:37:57.591Z,8.80
2022-11-25T19:40:26.436Z,8.70
2022-11-25T19:42:54.576Z,8.70
2022-11-25T19:45:23.434Z,8.70
2022-11-25T19:47:53.541Z,8.80
2022-11-25T19:50:24.577Z,8.80
2022-11-25T19:52:53.375Z,8.70
2022-11-25T19:55:23.408Z,8.70
2022-11-25T19:57:53.071Z,8.70
2022-11-25T20:00:23.534Z,8.70
2022-11-25T20:02:55.821Z,8.70
2022-11-25T20:05:30.096Z,8.70
2022-11-25T20:07:58.684Z,8.70
2022-11-25T20:10:28.658Z,8.60
2022-11-25T20:12:57.898Z,8.60
2022-11-25T20:15:26.889Z,8.60
2022-11-25T20:18:01.433Z,8.70
2022-11-25T20:20:33.392Z,8.60
2022-11-25T20:23:05.194Z,8.70
2022-11-25T20:25:35.155Z,8.70
2022-11-25T20:28:03.632Z,8.90
2022-11-25T20:30:31.760Z,9.00
2022-11-25T20:33:01.507Z,8.90
2022-11-25T20:35:30.287Z,8.80
2022-11-25T20:38:00.513Z,8.90
2022-11-25T20:40:37.579Z,8.90
2022-11-25T20:43:05.718Z,8.90
2022-11-25T20:45:34.392Z,8.80
2022-11-25T20:48:04.244Z,8.80
2022-11-25T20:50:32.639Z,8.90
2022-11-25T20:53:00.951Z,8.90
2022-11-25T20:55:29.286Z,8.90
2022-11-25T20:57:57.460Z,8.80
2022-11-25T21:00:27.276Z,8.80
2022-11-25T21:02:58.009Z,8.80
2022-11-25T21:05:28.484Z,8.90
2022-11-25T21:07:56.938Z,8.80
2022-11-25T21:10:27.719Z,8.80
2022-11-25T21:12:56.794Z,8.90
2022-11-25T21:15:27.474Z,8.80
2022-11-25T21:17:57.815Z,8.80
2022-11-25T21:20:27.520Z,8.80
2022-11-25T21:22:59.168Z,8.80
2022-11-25T21:25:27.625Z,8.90
2022-11-25T21:27:55.729Z,8.90
2022-11-25T21:30:25.900Z,8.80
2022-11-25T21:32:57.259Z,8.90
2022-11-25T21:35:32.182Z,8.90
2022-11-25T21:38:03.169Z,9.00
2022-11-25T21:40:39.033Z,8.80
2022-11-25T21:43:12.016Z,8.80
2022-11-25T21:45:40.400Z,8.80
2022-11-25T21:48:17.595Z,8.80
2022-11-25T21:50:47.261Z,8.80
2022-11-25T21:53:15.603Z,8.90
2022-11-25T21:55:44.024Z,8.80
2022-11-25T21:58:18.757Z,8.80
2022-11-25T22:00:50.714Z,8.70
2022-11-25T22:03:20.879Z,8.60
2022-11-25T22:05:51.265Z,8.70
2022-11-25T22:08:19.731Z,8.70
2022-11-25T22:10:51.402Z,8.60
2022-11-25T22:13:22.142Z,8.60
2022-11-25T22:15:53.381Z,8.60
2022-11-25T22:18:28.884Z,8.60
2022-11-25T22:20:58.727Z,8.60
2022-11-25T22:23:27.959Z,8.50
2022-11-25T22:25:56.766Z,8.40
2022-11-25T22:28:27.785Z,8.40
2022-11-25T22:30:58.196Z,8.40
2022-11-25T22:33:32.054Z,8.40
2022-11-25T22:36:01.828Z,8.50
2022-11-25T22:38:30.986Z,8.40
2022-11-25T22:41:01.942Z,8.40
2022-11-25T22:43:33.921Z,8.30
2022-11-25T22:46:02.906Z,8.30
2022-11-25T22:48:33.226Z,8.30
2022-11-25T22:51:05.374Z,8.20
2022-11-25T22:53:33.894Z,8.20
2022-11-25T22:56:02.029Z,8.10
2022-11-25T22:58:30.488Z,8.10
2022-11-25T23:00:59.128Z,8.00
2022-11-25T23:03:30.456Z,8.00
2022-11-25T23:05:59.165Z,8.00
2022-11-25T23:08:31.845Z,7.90
2022-11-25T23:11:00.614Z,7.90
2022-11-25T23:13:28.795Z,7.90
2022-11-25T23:15:59.225Z,7.90
2022-11-25T23:18:34.003Z,7.90
2022-11-25T23:21:15.744Z,7.80
2022-11-25T23:23:45.614Z,7.90
2022-11-25T23:26:14.885Z,7.80
2022-11-25T23:28:43.233Z,7.60
2022-11-25T23:31:13.187Z,7.50
2022-11-25T23:33:43.076Z,7.50
2022-11-25T23:36:14.119Z,7.50
2022-11-25T23:38:46.212Z,7.50
2022-11-25T23:41:16.799Z,7.30
2022-11-25T23:43:45.055Z,7.30
2022-11-25T23:46:15.948Z,7.30
2022-11-25T23:48:54.181Z,7.40
2022-11-25T23:51:23.619Z,7.30
2022-11-25T23:53:53.482Z,7.30
2022-11-25T23:56:22.231Z,7.30
2022-11-25T23:58:50.784Z,7.30
